Time;durP1;ratioP1;P1;durP2;ratioP2;P2;SDS_P1;SDS_P2;PMS_P1;PMS_P2;Temp;Humidity;BMP_temperature;BMP_pressure;BME280_temperature;BME280_humidity;BME280_pressure;Samples;Min_cycle;Max_cycle;Signal;HPM_P1;HPM_P2
2022/03/26 00:00:34;;;;;;;52.67;32.65;;;8.40;97.40;;;;;;5028778;28;20048;-55
2022/03/26 00:03:00;;;;;;;54.92;30.77;;;8.30;97.40;;;;;;5028534;28;20036;-55
2022/03/26 00:05:25;;;;;;;;;;;8.30;97.50;;;;;;5029492;28;20033;-57
2022/03/26 00:07:51;;;;;;;59.90;34.80;;;8.30;97.70;;;;;;5030325;28;20363;-58
2022/03/26 00:10:16;;;;;;;;;;;8.30;97.50;;;;;;5029828;28;20398;-54
2022/03/26 00:12:42;;;;;;;51.22;30.00;;;8.20;97.60;;;;;;5031541;28;20271;-56
2022/03/26 00:15:08;;;;;;;52.67;30.30;;;8.20;97.60;;;;;;5029775;28;20041;-57
2022/03/26 00:17:34;;;;;;;;;;;8.20;97.70;;;;;;5036603;28;20128;-55
2022/03/26 00:20:01;;;;;;;45.42;26.88;;;8.20;97.70;;;;;;5033497;28;20098;-56
2022/03/26 00:22:26;;;;;;;45.80;26.08;;;8.10;97.90;;;;;;5031248;28;20029;-55
2022/03/26 00:24:52;;;;;;;46.55;26.27;;;8.00;98.10;;;;;;5028554;28;20026;-55
2022/03/26 00:27:18;;;;;;;38.85;23.27;;;8.00;98.10;;;;;;5033687;28;20537;-55
2022/03/26 00:29:44;;;;;;;36.88;22.58;;;8.00;98.10;;;;;;5032743;28;20086;-53
2022/03/26 00:32:10;;;;;;;35.28;22.80;;;7.90;98.10;;;;;;5031334;28;20033;-55
2022/03/26 00:34:36;;;;;;;45.97;27.02;;;7.90;98.10;;;;;;5032633;28;20040;-55
2022/03/26 00:37:02;;;;;;;42.25;24.33;;;7.90;98.10;;;;;;5046729;28;20022;-56
2022/03/26 00:39:28;;;;;;;;;;;7.90;98.20;;;;;;5029316;28;20038;-53
2022/03/26 00:41:53;;;;;;;44.45;21.00;;;7.80;98.50;;;;;;5033055;28;19999;-56
2022/03/26 00:44:20;;;;;;;;;;;7.80;98.40;;;;;;5032276;28;20025;-57
2022/03/26 00:46:46;;;;;;;44.63;21.23;;;7.80;98.50;;;;;;5031178;28;19909;-57
2022/03/26 00:49:16;;;;;;;41.22;20.77;;;7.70;98.80;;;;;;5031720;28;20029;-57
2022/03/26 00:51:42;;;;;;;37.63;21.92;;;7.70;98.70;;;;;;5041045;28;20071;-55
2022/03/26 00:54:12;;;;;;;47.80;23.80;;;7.70;98.80;;;;;;5031979;28;20206;-56
2022/03/26 00:56:39;;;;;;;46.33;23.52;;;7.70;98.70;;;;;;5037958;28;20458;-55
2022/03/26 00:59:05;;;;;;;39.72;22.77;;;7.60;98.60;;;;;;5035294;28;20061;-55
2022/03/26 01:01:31;;;;;;;;;;;7.60;98.70;;;;;;5037434;28;20037;-56
2022/03/26 01:03:58;;;;;;;53.13;27.02;;;7.60;98.60;;;;;;5036660;28;19917;-56
2022/03/26 01:06:23;;;;;;;53.83;29.55;;;7.60;98.70;;;;;;5039561;28;20029;-57
2022/03/26 01:08:49;;;;;;;57.30;29.75;;;7.60;98.80;;;;;;5037634;28;20035;-55
2022/03/26 01:11:16;;;;;;;48.58;24.77;;;7.50;98.80;;;;;;5037261;28;20498;-56
2022/03/26 01:13:42;;;;;;;48.88;27.17;;;7.50;98.90;;;;;;5039237;28;20040;-57
2022/03/26 01:16:07;;;;;;;48.50;26.58;;;7.50;99.00;;;;;;5038478;28;20033;-55
2022/03/26 01:18:33;;;;;;;54.55;28.67;;;7.40;98.90;;;;;;5038811;28;20076;-55
2022/03/26 01:20:59;;;;;;;48.38;28.73;;;7.40;99.00;;;;;;5037951;28;20142;-53
2022/03/26 01:23:25;;;;;;;;;;;7.40;99.00;;;;;;5039272;28;20025;-54
2022/03/26 01:25:50;;;;;;;46.80;24.13;;;7.40;99.10;;;;;;5038684;28;20358;-57
2022/03/26 01:28:16;;;;;;;49.75;27.05;;;7.30;99.10;;;;;;5031054;28;20025;-56
2022/03/26 01:30:42;;;;;;;44.40;25.77;;;7.30;99.20;;;;;;5028274;28;21144;-56
2022/03/26 01:33:07;;;;;;;50.95;27.52;;;7.20;99.20;;;;;;5029404;28;20124;-56
2022/03/26 01:35:33;;;;;;;50.63;26.38;;;7.20;99.20;;;;;;5028482;28;20037;-56
2022/03/26 01:38:04;;;;;;;47.30;26.80;;;7.10;99.50;;;;;;5032207;28;20030;-57
2022/03/26 01:40:30;;;;;;;45.90;27.30;;;7.10;99.80;;;;;;5032311;28;20109;-57
2022/03/26 01:42:56;;;;;;;50.75;27.35;;;7.00;99.70;;;;;;5028584;28;20480;-56
2022/03/26 01:45:22;;;;;;;58.53;28.77;;;7.00;99.60;;;;;;5036234;28;20122;-56
2022/03/26 01:47:47;;;;;;;48.42;27.90;;;7.00;99.60;;;;;;5027269;28;20391;-56
2022/03/26 01:50:13;;;;;;;;;;;6.90;99.70;;;;;;5034202;28;20055;-57
2022/03/26 01:52:38;;;;;;;53.15;28.23;;;6.90;99.70;;;;;;5027590;28;19905;-56
2022/03/26 01:55:05;;;;;;;46.17;25.85;;;6.90;99.60;;;;;;5026864;28;20121;-56
2022/03/26 01:57:31;;;;;;;46.83;25.75;;;6.90;99.80;;;;;;5031091;28;20558;-56
2022/03/26 01:59:57;;;;;;;44.33;24.52;;;6.80;99.70;;;;;;5027066;28;20116;-56
2022/03/26 02:02:23;;;;;;;43.45;24.02;;;6.80;99.80;;;;;;5026893;28;20115;-56
2022/03/26 02:04:49;;;;;;;;;;;6.80;99.80;;;;;;5033896;28;20025;-53
2022/03/26 02:07:15;;;;;;;38.88;22.08;;;6.80;99.80;;;;;;5029166;28;20373;-57
2022/03/26 02:09:40;;;;;;;46.88;24.00;;;6.80;99.80;;;;;;5028393;28;20033;-56
2022/03/26 02:12:21;;;;;;;46.88;25.83;;;6.80;99.80;;;;;;5029069;28;20029;-57
2022/03/26 02:14:47;;;;;;;39.45;23.58;;;6.80;99.90;;;;;;5039085;28;20366;-55
2022/03/26 02:17:12;;;;;;;46.67;23.55;;;6.80;99.80;;;;;;5033083;28;20021;-57
2022/03/26 02:19:38;;;;;;;51.53;26.30;;;6.70;99.80;;;;;;5035990;28;20036;-53
2022/03/26 02:22:04;;;;;;;54.08;26.20;;;6.70;99.90;;;;;;5031756;28;20025;-56
2022/03/26 02:24:30;;;;;;;42.72;26.35;;;6.70;99.90;;;;;;5032673;28;20043;-56
2022/03/26 02:26:55;;;;;;;45.50;24.92;;;6.70;99.90;;;;;;5027403;28;20022;-53
2022/03/26 02:29:21;;;;;;;47.90;23.75;;;6.70;99.90;;;;;;5035879;28;20037;-54
2022/03/26 02:31:46;;;;;;;45.25;24.20;;;6.70;99.90;;;;;;5030366;28;20036;-56
2022/03/26 02:34:12;;;;;;;41.08;22.55;;;6.60;99.90;;;;;;5030025;28;20033;-55
2022/03/26 02:36:37;;;;;;;34.63;20.10;;;6.60;99.90;;;;;;5031826;28;20025;-56
2022/03/26 02:39:04;;;;;;;39.42;22.88;;;6.60;99.90;;;;;;5034277;28;20033;-57
2022/03/26 02:41:31;;;;;;;39.53;21.98;;;6.60;99.90;;;;;;5030870;28;20021;-57
2022/03/26 02:43:57;;;;;;;43.83;21.92;;;6.60;99.90;;;;;;5043586;28;20021;-56
2022/03/26 02:46:22;;;;;;;40.88;21.10;;;6.50;99.90;;;;;;5027124;28;20033;-54
2022/03/26 02:48:48;;;;;;;37.00;21.88;;;6.50;99.90;;;;;;5040036;28;20120;-55
2022/03/26 02:51:13;;;;;;;39.78;22.13;;;6.50;99.90;;;;;;5028152;28;20040;-55
2022/03/26 02:53:39;;;;;;;41.42;23.08;;;6.50;99.90;;;;;;5028021;28;20036;-56
2022/03/26 02:56:04;;;;;;;49.78;22.55;;;6.40;99.90;;;;;;5027358;28;20029;-52
2022/03/26 02:58:30;;;;;;;40.63;21.50;;;6.40;99.90;;;;;;5028209;28;20128;-51
2022/03/26 03:00:57;;;;;;;39.42;22.63;;;6.40;99.90;;;;;;5026645;28;20506;-55
2022/03/26 03:03:22;;;;;;;45.65;23.80;;;6.30;99.90;;;;;;5029196;28;20447;-54
2022/03/26 03:05:48;;;;;;;40.97;23.50;;;6.40;99.90;;;;;;5026352;28;20026;-55
2022/03/26 03:08:14;;;;;;;41.25;22.90;;;6.30;99.90;;;;;;5027033;28;20049;-56
2022/03/26 03:10:44;;;;;;;44.08;23.35;;;6.30;99.90;;;;;;5032333;28;20510;-56
2022/03/26 03:13:10;;;;;;;46.72;23.83;;;6.30;99.90;;;;;;5028568;28;20479;-56
2022/03/26 03:15:36;;;;;;;47.47;23.30;;;6.20;99.90;;;;;;5027007;28;20040;-56
2022/03/26 03:18:02;;;;;;;45.25;26.63;;;6.20;99.90;;;;;;5026992;28;20065;-56
2022/03/26 03:20:29;;;;;;;50.65;26.83;;;6.20;99.90;;;;;;5026585;28;20025;-55
2022/03/26 03:22:56;;;;;;;53.05;26.25;;;6.20;99.90;;;;;;5026381;28;20022;-56
2022/03/26 03:25:25;;;;;;;44.22;24.30;;;6.20;99.90;;;;;;5034751;28;20041;-56
2022/03/26 03:27:51;;;;;;;54.30;27.40;;;6.30;99.90;;;;;;5031282;28;20060;-55
2022/03/26 03:30:17;;;;;;;58.72;32.42;;;6.30;99.90;;;;;;5036473;28;20518;-56
2022/03/26 03:32:43;;;;;;;53.97;29.00;;;6.30;99.90;;;;;;5033989;28;20087;-56
2022/03/26 03:35:09;;;;;;;58.10;30.75;;;6.30;99.90;;;;;;5039840;28;20177;-55
2022/03/26 03:37:38;;;;;;;53.58;30.35;;;6.30;99.90;;;;;;5033206;28;20425;-56
2022/03/26 03:40:05;;;;;;;50.38;31.23;;;6.30;99.90;;;;;;5032793;28;20036;-56
2022/03/26 03:42:31;;;;;;;59.28;32.80;;;6.20;99.90;;;;;;5029600;28;20123;-54
2022/03/26 03:44:57;;;;;;;53.75;29.60;;;6.20;99.90;;;;;;5036232;28;20042;-56
2022/03/26 03:47:23;;;;;;;51.72;25.38;;;6.20;99.90;;;;;;5029384;28;20038;-57
2022/03/26 03:49:48;;;;;;;50.17;26.42;;;6.10;99.90;;;;;;5040124;28;20029;-56
2022/03/26 03:52:14;;;;;;;57.25;31.48;;;6.00;99.90;;;;;;5034875;28;20034;-56
2022/03/26 03:54:39;;;;;;;49.83;26.23;;;6.00;99.90;;;;;;5034151;28;20028;-55
2022/03/26 03:57:05;;;;;;;54.15;26.70;;;6.00;99.90;;;;;;5038343;28;20190;-54
2022/03/26 03:59:31;;;;;;;43.65;25.25;;;6.00;99.90;;;;;;5041767;28;20028;-55
2022/03/26 04:01:56;;;;;;;42.90;24.10;;;6.00;99.90;;;;;;5039141;28;20029;-56
2022/03/26 04:04:22;;;;;;;51.13;24.20;;;6.00;99.90;;;;;;5042548;28;20474;-54
2022/03/26 04:06:47;;;;;;;38.50;22.15;;;6.00;99.90;;;;;;5035996;28;20041;-56
2022/03/26 04:09:13;;;;;;;45.20;25.30;;;6.00;99.90;;;;;;5029816;28;20080;-55
2022/03/26 04:11:39;;;;;;;42.20;24.35;;;5.90;99.90;;;;;;5031457;28;20030;-52
2022/03/26 04:14:06;;;;;;;47.80;23.73;;;5.90;99.90;;;;;;5042211;28;20024;-55
2022/03/26 04:16:31;;;;;;;39.50;22.48;;;5.90;99.90;;;;;;5029641;28;20029;-53
2022/03/26 04:18:58;;;;;;;45.40;24.02;;;5.90;99.90;;;;;;5033883;28;20504;-55
2022/03/26 04:21:24;;;;;;;43.22;23.08;;;5.90;99.90;;;;;;5031368;28;20029;-54
2022/03/26 04:23:49;;;;;;;44.33;23.15;;;5.90;99.90;;;;;;5035495;28;20028;-54
2022/03/26 04:26:15;;;;;;;50.58;24.85;;;5.90;99.90;;;;;;5044288;28;20086;-52
2022/03/26 04:28:40;;;;;;;46.08;23.67;;;6.00;99.90;;;;;;5035718;28;20117;-57
2022/03/26 04:31:07;;;;;;;40.28;21.88;;;5.90;99.90;;;;;;5029546;28;20463;-54
2022/03/26 04:33:32;;;;;;;45.55;23.17;;;5.90;99.90;;;;;;5031696;28;20526;-54
2022/03/26 04:35:59;;;;;;;45.25;24.38;;;5.90;99.90;;;;;;5036799;28;20033;-53
2022/03/26 04:38:24;;;;;;;42.80;24.70;;;5.90;99.90;;;;;;5038476;28;20140;-54
2022/03/26 04:40:50;;;;;;;41.25;22.60;;;5.90;99.90;;;;;;5028948;28;20128;-55
2022/03/26 04:43:18;;;;;;;49.47;23.75;;;5.90;99.90;;;;;;5027891;28;20032;-56
2022/03/26 04:45:44;;;;;;;38.38;22.88;;;5.90;99.90;;;;;;5028129;28;20036;-56
2022/03/26 04:48:09;;;;;;;;;;;5.90;99.90;;;;;;5035558;28;20506;-56
2022/03/26 04:50:35;;;;;;;39.60;21.88;;;5.90;99.90;;;;;;5029183;28;20004;-52
2022/03/26 04:53:00;;;;;;;47.50;23.25;;;5.90;99.90;;;;;;5032480;28;20542;-54
2022/03/26 04:55:26;;;;;;;43.58;22.95;;;5.90;99.90;;;;;;5029941;28;20513;-56
2022/03/26 04:57:51;;;;;;;42.03;23.48;;;5.80;99.90;;;;;;5033480;28;20283;-53
2022/03/26 05:00:18;;;;;;;45.80;23.25;;;5.80;99.90;;;;;;5036731;28;20036;-53
2022/03/26 05:02:44;;;;;;;43.25;21.42;;;5.80;99.90;;;;;;5029329;28;20527;-55
2022/03/26 05:05:12;;;;;;;45.38;22.23;;;5.70;99.90;;;;;;5028335;28;20116;-52
2022/03/26 05:07:48;;;;;;;49.58;21.92;;;5.70;99.90;;;;;;5036078;28;20022;-54
2022/03/26 05:10:14;;;;;;;39.53;21.63;;;5.80;99.90;;;;;;5030554;28;20406;-54
2022/03/26 05:12:39;;;;;;;46.00;21.35;;;5.70;99.90;;;;;;5031740;28;20032;-56
2022/03/26 05:15:05;;;;;;;40.95;20.88;;;5.70;99.90;;;;;;5028503;28;20045;-55
2022/03/26 05:17:31;;;;;;;39.10;20.65;;;5.60;99.90;;;;;;5027712;28;20021;-54
2022/03/26 05:19:56;;;;;;;45.25;22.98;;;5.60;99.90;;;;;;5027492;28;20123;-55
2022/03/26 05:22:22;;;;;;;42.55;20.92;;;5.60;99.90;;;;;;5030653;28;20021;-54
2022/03/26 05:24:47;;;;;;;41.40;23.58;;;5.50;99.90;;;;;;5027565;28;20565;-55
2022/03/26 05:27:13;;;;;;;42.85;22.25;;;5.50;99.90;;;;;;5028264;28;20029;-56
2022/03/26 05:29:38;;;;;;;41.17;22.17;;;5.60;99.90;;;;;;5035579;28;20053;-54
2022/03/26 05:32:06;;;;;;;42.55;23.52;;;5.60;99.90;;;;;;5031606;28;20025;-55
2022/03/26 05:34:32;;;;;;;40.42;23.33;;;5.70;99.90;;;;;;5028587;28;20079;-56
2022/03/26 05:36:58;;;;;;;45.42;24.50;;;5.70;99.90;;;;;;5041884;28;20134;-57
2022/03/26 05:39:23;;;;;;;49.45;24.67;;;5.70;99.90;;;;;;5040976;28;20067;-57
2022/03/26 05:41:49;;;;;;;42.03;21.50;;;5.70;99.90;;;;;;5028939;28;20048;-56
2022/03/26 05:44:14;;;;;;;39.50;23.83;;;5.80;99.90;;;;;;5031043;28;20065;-57
2022/03/26 05:46:40;;;;;;;44.97;22.98;;;5.80;99.90;;;;;;5033557;28;20404;-55
2022/03/26 05:49:06;;;;;;;41.40;22.50;;;5.90;99.90;;;;;;5027093;28;20029;-56
2022/03/26 05:51:31;;;;;;;46.85;23.38;;;5.90;99.90;;;;;;5028357;28;20036;-57
2022/03/26 05:53:57;;;;;;;54.65;23.73;;;6.00;99.90;;;;;;5038529;28;20036;-57
2022/03/26 05:56:22;;;;;;;45.58;24.35;;;6.00;99.90;;;;;;5032458;28;20037;-57
2022/03/26 05:58:50;;;;;;;51.28;24.55;;;6.00;99.90;;;;;;5036209;28;20132;-55
2022/03/26 06:01:16;;;;;;;54.50;25.20;;;6.00;99.90;;;;;;5036100;28;20057;-56
2022/03/26 06:03:41;;;;;;;47.15;24.77;;;6.10;99.90;;;;;;5034437;28;20099;-57
2022/03/26 06:06:07;;;;;;;60.05;27.33;;;6.20;99.90;;;;;;5031191;28;20029;-55
2022/03/26 06:08:32;;;;;;;41.28;24.00;;;6.20;99.90;;;;;;5034517;28;20032;-56
2022/03/26 06:10:58;;;;;;;50.10;24.13;;;6.30;99.90;;;;;;5035290;28;20037;-57
2022/03/26 06:13:23;;;;;;;49.92;24.83;;;6.30;99.90;;;;;;5037958;28;20538;-57
2022/03/26 06:15:49;;;;;;;54.55;28.30;;;6.40;99.90;;;;;;5034260;28;20099;-56
2022/03/26 06:18:14;;;;;;;54.10;25.83;;;6.40;99.90;;;;;;5029001;28;20037;-57
2022/03/26 06:20:42;;;;;;;53.58;30.05;;;6.50;99.90;;;;;;5038863;28;20033;-56
2022/03/26 06:23:07;;;;;;;58.38;25.73;;;6.50;99.90;;;;;;5035729;28;20029;-58
2022/03/26 06:25:33;;;;;;;55.25;27.90;;;6.60;99.90;;;;;;5035049;28;20021;-57
2022/03/26 06:27:59;;;;;;;58.70;28.05;;;6.70;99.90;;;;;;5030716;28;20037;-57
2022/03/26 06:30:24;;;;;;;47.70;27.45;;;6.70;99.90;;;;;;5030129;28;20037;-57
2022/03/26 06:32:52;;;;;;;58.50;30.92;;;6.80;99.90;;;;;;5029153;28;20030;-57
2022/03/26 06:35:18;;;;;;;54.50;28.75;;;6.90;99.90;;;;;;5028798;28;20449;-55
2022/03/26 06:37:44;;;;;;;56.10;28.88;;;6.90;99.90;;;;;;5037413;28;20075;-56
2022/03/26 06:40:10;;;;;;;66.18;29.17;;;7.00;99.90;;;;;;5040753;28;20065;-57
2022/03/26 06:42:35;;;;;;;;;;;7.10;99.90;;;;;;5026650;28;20140;-57
2022/03/26 06:45:01;;;;;;;52.08;26.52;;;7.20;99.90;;;;;;5026072;28;19913;-55
2022/03/26 06:47:27;;;;;;;57.15;30.27;;;7.30;99.90;;;;;;5026485;28;20030;-57
2022/03/26 06:49:53;;;;;;;66.18;28.90;;;7.30;99.90;;;;;;5031351;28;20549;-57
2022/03/26 06:52:19;;;;;;;71.90;32.70;;;7.40;99.90;;;;;;5033302;28;20026;-57
2022/03/26 06:54:44;;;;;;;62.08;30.80;;;7.40;99.90;;;;;;5026072;28;20112;-55
2022/03/26 06:57:10;;;;;;;61.25;31.35;;;7.50;99.90;;;;;;5025753;28;20395;-55
2022/03/26 06:59:35;;;;;;;60.83;28.85;;;7.60;99.90;;;;;;5026631;28;20044;-57
2022/03/26 07:02:01;;;;;;;61.28;28.50;;;7.70;99.90;;;;;;5029941;28;20109;-55
2022/03/26 07:04:26;;;;;;;59.50;30.80;;;7.80;99.90;;;;;;5083568;22;20053;-51
2022/03/26 07:06:52;;;;;;;64.65;34.28;;;7.90;99.90;;;;;;5077460;28;20115;-50
2022/03/26 07:09:18;;;;;;;66.43;33.00;;;7.90;99.90;;;;;;5077712;28;20429;-50
2022/03/26 07:11:43;;;;;;;66.30;36.72;;;8.00;99.80;;;;;;5077667;28;20604;-53
2022/03/26 07:14:09;;;;;;;69.05;35.40;;;8.10;99.70;;;;;;5078158;28;20088;-52
2022/03/26 07:16:34;;;;;;;66.35;32.42;;;8.20;99.60;;;;;;5077895;28;20396;-52
2022/03/26 07:19:00;;;;;;;70.85;33.95;;;8.30;99.50;;;;;;5078373;28;20032;-54
2022/03/26 07:21:25;;;;;;;61.50;31.70;;;8.40;99.40;;;;;;5076428;28;20035;-53
2022/03/26 07:23:51;;;;;;;59.97;29.67;;;8.50;99.30;;;;;;5078074;28;20043;-53
2022/03/26 07:26:17;;;;;;;61.63;32.10;;;8.50;99.10;;;;;;5076172;28;20025;-54
2022/03/26 07:28:43;;;;;;;64.80;31.65;;;8.60;99.00;;;;;;5077918;28;20054;-51
2022/03/26 07:31:08;;;;;;;60.60;31.70;;;8.70;99.00;;;;;;5077924;28;20056;-51
2022/03/26 07:33:34;;;;;;;59.15;33.72;;;8.70;99.00;;;;;;5077676;28;20028;-52
2022/03/26 07:35:59;;;;;;;63.03;30.98;;;8.80;98.90;;;;;;5076435;28;20036;-52
2022/03/26 07:38:25;;;;;;;62.85;31.55;;;8.80;98.40;;;;;;5076395;28;20450;-53
2022/03/26 07:40:52;;;;;;;57.60;30.73;;;8.90;98.40;;;;;;5077020;28;20033;-52
2022/03/26 07:43:17;;;;;;;64.20;30.55;;;9.00;98.30;;;;;;5077210;28;20016;-51
2022/03/26 07:45:43;;;;;;;67.72;33.78;;;9.00;98.50;;;;;;5077402;28;20194;-50
2022/03/26 07:48:09;;;;;;;;;;;9.10;98.60;;;;;;5077769;28;20032;-51
2022/03/26 07:50:34;;;;;;;56.45;29.08;;;9.20;98.60;;;;;;5077146;28;19920;-51
2022/03/26 07:53:00;;;;;;;63.30;30.58;;;9.20;98.60;;;;;;5076939;28;20020;-53
2022/03/26 07:55:26;;;;;;;53.63;28.35;;;9.30;98.60;;;;;;5075849;28;20435;-52
2022/03/26 07:57:52;;;;;;;59.85;31.25;;;9.40;98.80;;;;;;5077564;28;20284;-51
2022/03/26 08:00:17;;;;;;;65.38;33.35;;;9.40;98.60;;;;;;5076142;28;20085;-51
2022/03/26 08:02:43;;;;;;;;;;;9.50;98.60;;;;;;5077412;28;20381;-50
2022/03/26 08:05:08;;;;;;;59.08;33.83;;;9.60;98.70;;;;;;5075720;28;19916;-54
2022/03/26 08:07:34;;;;;;;58.88;31.02;;;9.60;98.60;;;;;;5076696;28;20055;-54
2022/03/26 08:09:59;;;;;;;;;;;9.70;98.50;;;;;;5077434;28;20037;-54
2022/03/26 08:12:25;;;;;;;49.38;29.02;;;9.80;98.50;;;;;;5076357;28;19950;-53
2022/03/26 08:14:51;;;;;;;59.50;32.40;;;9.90;98.30;;;;;;5075796;28;20468;-54
2022/03/26 08:17:16;;;;;;;59.38;30.85;;;9.90;98.50;;;;;;5076576;28;20024;-54
2022/03/26 08:19:42;;;;;;;52.15;31.08;;;10.00;98.40;;;;;;5076680;28;20037;-54
2022/03/26 08:22:07;;;;;;;54.38;30.15;;;10.10;98.30;;;;;;5075945;28;20397;-54
2022/03/26 08:24:33;;;;;;;;;;;10.20;98.30;;;;;;5076647;28;20050;-53
2022/03/26 08:26:58;;;;;;;53.53;30.38;;;10.30;98.20;;;;;;5076447;28;19905;-53
2022/03/26 08:29:24;;;;;;;;;;;10.40;98.10;;;;;;5076495;28;20146;-55
2022/03/26 08:31:49;;;;;;;54.03;27.08;;;10.50;98.00;;;;;;5077260;28;19943;-54
2022/03/26 08:34:15;;;;;;;50.85;26.73;;;10.60;98.00;;;;;;5074782;28;20041;-55
2022/03/26 08:36:40;;;;;;;54.47;29.95;;;10.70;98.00;;;;;;5076419;28;20033;-54
2022/03/26 08:39:05;;;;;;;;;;;10.80;98.00;;;;;;5076028;28;20040;-52
2022/03/26 08:41:31;;;;;;;46.58;26.48;;;10.90;97.80;;;;;;5075665;28;19928;-55
2022/03/26 08:43:56;;;;;;;;;;;11.00;97.80;;;;;;5076229;28;20021;-55
2022/03/26 08:46:23;;;;;;;48.78;25.55;;;11.00;97.70;;;;;;5076113;28;19912;-54
2022/03/26 08:48:50;;;;;;;51.17;28.77;;;11.10;97.50;;;;;;5076374;28;20343;-52
2022/03/26 08:51:16;;;;;;;49.42;26.83;;;11.30;97.40;;;;;;5076121;28;20654;-54
2022/03/26 08:53:42;;;;;;;53.65;28.83;;;11.30;97.00;;;;;;5076044;28;20024;-53
2022/03/26 08:56:08;;;;;;;;;;;11.50;97.40;;;;;;5076745;28;20058;-53
2022/03/26 08:58:34;;;;;;;43.05;25.60;;;11.50;97.20;;;;;;5076764;28;19968;-53
2022/03/26 09:01:00;;;;;;;47.00;24.38;;;11.60;97.10;;;;;;5075121;28;20020;-54
2022/03/26 09:03:26;;;;;;;48.80;25.08;;;11.80;96.40;;;;;;5075251;28;20025;-53
2022/03/26 09:05:52;;;;;;;;;;;11.80;96.10;;;;;;5075667;28;20097;-54
2022/03/26 09:08:18;;;;;;;44.55;23.35;;;11.90;96.10;;;;;;5074611;28;20357;-51
2022/03/26 09:10:44;;;;;;;44.05;25.48;;;12.00;95.60;;;;;;5075347;28;20033;-53
2022/03/26 09:13:10;;;;;;;;;;;12.00;95.50;;;;;;5075698;28;20115;-54
2022/03/26 09:15:36;;;;;;;38.22;22.88;;;12.10;95.60;;;;;;5075807;28;19919;-54
2022/03/26 09:18:02;;;;;;;44.53;23.02;;;12.20;95.10;;;;;;5075454;28;20059;-53
2022/03/26 09:20:27;;;;;;;;;;;12.30;94.70;;;;;;5075486;28;20024;-52
2022/03/26 09:22:53;;;;;;;46.83;23.98;;;12.40;95.10;;;;;;5074086;28;20277;-52
2022/03/26 09:25:20;;;;;;;;;;;12.50;94.90;;;;;;5074940;28;20048;-51
2022/03/26 09:27:46;;;;;;;35.63;23.92;;;12.50;94.80;;;;;;5074796;28;19912;-54
2022/03/26 09:30:11;;;;;;;;;;;12.60;95.10;;;;;;5075034;28;20033;-54
2022/03/26 09:32:37;;;;;;;42.65;22.67;;;12.70;94.40;;;;;;5075546;28;19942;-52
2022/03/26 09:35:03;;;;;;;;;;;12.80;94.70;;;;;;5074597;28;20028;-54
2022/03/26 09:37:29;;;;;;;39.67;22.83;;;12.90;94.60;;;;;;5073778;28;19914;-53
2022/03/26 09:39:54;;;;;;;;;;;13.00;94.90;;;;;;5074649;28;20059;-54
2022/03/26 09:42:23;;;;;;;47.35;23.08;;;13.10;94.40;;;;;;5074659;28;20364;-52
2022/03/26 09:44:50;;;;;;;37.30;22.70;;;13.20;94.20;;;;;;5075799;28;20077;-53
2022/03/26 09:47:16;;;;;;;43.40;23.67;;;13.30;94.40;;;;;;5073369;28;20108;-52
2022/03/26 09:49:42;;;;;;;42.60;23.88;;;13.40;93.90;;;;;;5074952;28;20025;-51
2022/03/26 09:52:08;;;;;;;;;;;13.50;94.00;;;;;;5075220;28;20504;-52
2022/03/26 09:54:36;;;;;;;44.80;25.55;;;13.60;93.60;;;;;;5075559;28;19927;-55
2022/03/26 09:57:02;;;;;;;44.38;24.38;;;13.70;93.30;;;;;;5074220;28;20107;-52
2022/03/26 09:59:28;;;;;;;36.13;21.00;;;13.80;92.80;;;;;;5074761;28;20536;-54
2022/03/26 10:01:53;;;;;;;;;;;13.80;93.00;;;;;;5074548;28;20033;-54
2022/03/26 10:04:22;;;;;;;41.40;23.15;;;13.80;92.30;;;;;;5073622;28;19912;-52
2022/03/26 10:06:50;;;;;;;35.92;22.48;;;13.80;92.60;;;;;;5074256;28;20103;-54
2022/03/26 10:09:32;;;;;;;29.13;19.63;;;13.80;92.60;;;;;;5073833;28;20028;-53
2022/03/26 10:12:19;;;;;;;27.73;16.05;;;13.90;92.30;;;;;;5073607;28;20036;-53
2022/03/26 10:15:00;;;;;;;23.02;15.70;;;14.00;91.80;;;;;;5074963;28;20156;-55
2022/03/26 10:17:28;;;;;;;24.88;15.27;;;14.00;91.90;;;;;;5074426;28;20051;-54
2022/03/26 10:19:56;;;;;;;28.50;14.60;;;14.00;92.10;;;;;;5075027;28;20055;-51
2022/03/26 10:22:31;;;;;;;28.45;15.18;;;14.10;91.50;;;;;;5073625;28;20085;-55
2022/03/26 10:24:59;;;;;;;26.13;14.80;;;14.10;91.50;;;;;;5075634;28;20021;-54
2022/03/26 10:27:25;;;;;;;27.02;15.73;;;14.20;91.40;;;;;;5073483;28;20030;-53
2022/03/26 10:29:52;;;;;;;;;;;14.20;91.20;;;;;;5075328;28;20025;-53
2022/03/26 10:32:39;;;;;;;23.50;13.80;;;14.30;91.00;;;;;;5073928;28;19908;-55
2022/03/26 10:35:23;;;;;;;;;;;14.40;90.10;;;;;;5075458;28;20045;-54
2022/03/26 10:37:51;;;;;;;20.80;13.75;;;14.30;89.50;;;;;;5075451;28;19909;-52
2022/03/26 10:40:17;;;;;;;25.50;15.73;;;14.30;89.90;;;;;;5077482;28;20017;-53
2022/03/26 10:42:42;;;;;;;;;;;14.40;89.60;;;;;;5079909;28;20028;-55
2022/03/26 10:45:14;;;;;;;26.15;16.10;;;14.50;89.90;;;;;;5079214;28;20357;-54
2022/03/26 10:47:39;;;;;;;23.73;14.55;;;14.60;89.70;;;;;;5078313;28;20117;-52
2022/03/26 10:50:05;;;;;;;;;;;14.70;89.20;;;;;;5079695;28;20016;-52
2022/03/26 10:52:31;;;;;;;28.35;16.50;;;14.80;86.00;;;;;;5077885;28;19912;-54
2022/03/26 10:54:56;;;;;;;;;;;14.90;85.10;;;;;;5079351;28;20021;-55
2022/03/26 10:57:24;;;;;;;24.63;14.88;;;14.80;84.60;;;;;;5076566;28;19982;-54
2022/03/26 10:59:51;;;;;;;26.50;15.32;;;14.80;85.00;;;;;;5078484;28;20052;-54
2022/03/26 11:02:17;;;;;;;23.55;13.68;;;14.80;85.40;;;;;;5077122;28;20021;-54
2022/03/26 11:04:42;;;;;;;;;;;14.90;86.50;;;;;;5079289;28;20098;-54
2022/03/26 11:07:11;;;;;;;24.05;13.55;;;15.00;85.30;;;;;;5076963;28;20042;-52
2022/03/26 11:09:37;;;;;;;21.13;14.43;;;15.20;83.20;;;;;;5078537;28;20170;-55
2022/03/26 11:12:03;;;;;;;;;;;15.40;82.50;;;;;;5078429;28;20284;-52
2022/03/26 11:14:32;;;;;;;;;;;15.40;80.60;;;;;;5076367;28;20288;-55
2022/03/26 11:17:16;;;;;;;;;;;15.40;80.10;;;;;;5078862;28;20285;-53
2022/03/26 11:20:01;;;;;;;;;;;15.40;80.00;;;;;;5078859;28;19960;-54
2022/03/26 11:22:29;;;;;;;;;;;15.50;79.80;;;;;;5077716;28;19908;-52
2022/03/26 11:25:07;;;;;;;;;;;15.50;77.30;;;;;;5078202;28;19908;-52
2022/03/26 11:27:39;;;;;;;;;;;15.50;77.90;;;;;;5077925;28;19916;-51
2022/03/26 11:30:04;;;;;;;;;;;15.60;77.50;;;;;;5077779;28;19966;-54
2022/03/26 11:32:35;;;;;;;;;;;15.60;78.10;;;;;;5077602;28;20303;-55
2022/03/26 11:35:02;;;;;;;;;;;15.80;77.90;;;;;;5068597;28;20345;-54
2022/03/26 11:37:28;;;;;;;;;;;15.90;77.40;;;;;;5068301;28;19919;-53
2022/03/26 11:39:56;;;;;;;;;;;16.00;77.00;;;;;;5068881;28;19998;-54
2022/03/26 11:42:23;;;;;;;;;;;16.00;75.60;;;;;;5068176;28;19959;-54
2022/03/26 11:50:41;;;;;;;;;;;16.00;75.30;;;;;;5071853;28;19966;-52
2022/03/26 11:50:45;;;;;;;;;;;16.20;74.60;;;;;;5075515;28;19916;-51
2022/03/26 11:53:12;;;;;;;;;;;16.50;73.40;;;;;;5074506;28;20437;-53
2022/03/26 11:55:42;;;;;;;;;;;16.70;72.20;;;;;;5076199;28;19908;-54
2022/03/26 11:58:16;;;;;;;;;;;16.70;70.40;;;;;;5076161;28;19917;-54
2022/03/26 12:00:53;;;;;;;;;;;16.70;69.80;;;;;;5077611;28;19931;-51
2022/03/26 12:03:23;;;;;;;;;;;16.70;69.50;;;;;;5076429;28;19909;-52
2022/03/26 12:08:39;;;;;;;;;;;16.80;68.50;;;;;;5077495;28;19976;-52
2022/03/26 12:11:04;;;;;;;;;;;16.70;68.30;;;;;;5076853;28;19912;-54
2022/03/26 12:13:33;;;;;;;;;;;16.60;68.60;;;;;;5076966;28;19912;-52
2022/03/26 12:15:59;;;;;;;;;;;16.60;69.20;;;;;;5077012;28;19951;-54
2022/03/26 12:18:35;;;;;;;;;;;16.60;69.60;;;;;;5075714;28;20334;-55
2022/03/26 12:21:07;;;;;;;;;;;16.60;70.20;;;;;;5076759;28;19931;-53
2022/03/26 12:23:34;;;;;;;;;;;16.70;70.50;;;;;;5077420;28;19912;-54
2022/03/26 12:26:01;;;;;;;;;;;16.70;70.50;;;;;;5074360;28;19919;-52
2022/03/26 12:28:29;;;;;;;;;;;16.70;70.60;;;;;;5076768;28;19909;-52
2022/03/26 12:30:56;;;;;;;;;;;16.70;70.70;;;;;;5077236;28;20218;-56
2022/03/26 12:33:22;;;;;;;;;;;16.70;70.70;;;;;;5076048;28;19919;-52
2022/03/26 12:35:51;;;;;;;;;;;16.70;70.90;;;;;;5074368;28;19911;-53
2022/03/26 12:38:18;;;;;;;;;;;16.70;70.70;;;;;;5076786;28;19912;-52
2022/03/26 12:41:03;;;;;;;;;;;16.80;71.00;;;;;;5075808;28;19951;-53
2022/03/26 12:43:28;;;;;;;;;;;16.90;71.10;;;;;;5076538;28;20339;-52
2022/03/26 12:45:55;;;;;;;;;;;16.90;70.50;;;;;;5076649;28;19908;-52
2022/03/26 12:48:23;;;;;;;;;;;16.90;70.30;;;;;;5076277;28;19908;-54
2022/03/26 12:50:49;;;;;;;;;;;16.90;69.90;;;;;;5076238;28;19905;-53
2022/03/26 12:53:15;;;;;;;;;;;17.00;70.40;;;;;;5076523;28;19914;-55
2022/03/26 12:55:41;;;;;;;;;;;17.20;70.00;;;;;;5076472;28;20411;-52
2022/03/26 13:01:01;;;;;;;;;;;17.40;69.60;;;;;;5075337;28;19974;-53
2022/03/26 13:03:27;;;;;;;;;;;17.40;68.90;;;;;;5075633;28;19919;-54